createdAt,value
2017-12-12T01:38:35.209Z,984.82
2017-12-12T01:38:35.778Z,984.84
2017-12-12T01:38:36.377Z,984.83
2017-12-12T01:38:36.979Z,984.84
2017-12-12T01:38:37.578Z,984.79
2017-12-12T01:38:38.176Z,984.83
2017-12-12T01:38:38.778Z,984.82
2017-12-12T01:38:39.377Z,984.82
2017-12-12T01:39:33.858Z,984.87
2017-12-12T01:39:34.455Z,984.84
2017-12-12T01:39:35.054Z,984.84
2017-12-12T01:39:35.654Z,984.88
2017-12-12T01:39:36.253Z,984.84
2017-12-12T01:39:36.854Z,984.84
2017-12-12T01:39:37.453Z,984.85
2017-12-12T01:39:38.051Z,984.83
2017-12-12T01:40:31.822Z,984.89
2017-12-12T01:40:32.330Z,984.90
2017-12-12T01:40:32.927Z,984.89
2017-12-12T01:40:33.527Z,984.88
2017-12-12T01:40:34.130Z,984.93
2017-12-12T01:40:34.727Z,984.91
2017-12-12T01:40:35.326Z,984.85
2017-12-12T01:40:35.926Z,984.88
2017-12-12T01:41:29.368Z,984.92
2017-12-12T01:41:29.965Z,984.90
2017-12-12T01:41:30.565Z,984.93
2017-12-12T01:41:31.173Z,984.92
2017-12-12T01:41:31.765Z,984.94
2017-12-12T01:41:32.364Z,984.96
2017-12-12T01:41:32.965Z,984.93
2017-12-12T01:41:33.563Z,984.94
2017-12-12T01:42:27.020Z,984.97
2017-12-12T01:42:27.616Z,984.96
2017-12-12T01:42:28.216Z,984.96
2017-12-12T01:42:28.815Z,984.98
2017-12-12T01:42:29.415Z,984.96
2017-12-12T01:42:30.018Z,984.96
2017-12-12T01:42:30.616Z,984.97
2017-12-12T01:42:31.216Z,985.00
2017-12-12T01:43:25.695Z,984.96
2017-12-12T01:43:26.293Z,984.95
2017-12-12T01:43:26.891Z,984.96
2017-12-12T01:43:27.496Z,984.97
2017-12-12T01:43:28.091Z,984.97
2017-12-12T01:43:28.696Z,984.93
2017-12-12T01:43:29.291Z,984.96
2017-12-12T01:43:29.892Z,984.94
2017-12-12T01:44:24.373Z,984.97
2017-12-12T01:44:24.971Z,984.98
2017-12-12T01:44:25.570Z,984.97
2017-12-12T01:44:26.171Z,984.94
2017-12-12T01:44:26.767Z,984.97
2017-12-12T01:44:27.369Z,984.98
2017-12-12T01:44:27.968Z,984.96
2017-12-12T01:44:28.568Z,984.97
2017-12-12T01:45:23.047Z,985.01
2017-12-12T01:45:23.647Z,985.01
2017-12-12T01:45:24.243Z,985.03
2017-12-12T01:45:24.846Z,985.01
2017-12-12T01:45:25.444Z,985.00
2017-12-12T01:45:26.043Z,985.02
2017-12-12T01:45:26.643Z,985.03
2017-12-12T01:45:27.244Z,985.02
2017-12-12T01:46:21.753Z,985.02
2017-12-12T01:46:22.321Z,985.05
2017-12-12T01:46:22.920Z,984.99
2017-12-12T01:46:23.521Z,985.00
2017-12-12T01:46:24.118Z,984.98
2017-12-12T01:46:24.718Z,985.00
2017-12-12T01:46:25.318Z,985.02
2017-12-12T01:46:25.917Z,985.01
2017-12-12T01:47:19.377Z,985.07
2017-12-12T01:47:19.978Z,985.04
2017-12-12T01:47:20.572Z,985.05
2017-12-12T01:47:21.172Z,985.01
2017-12-12T01:47:21.772Z,985.05
2017-12-12T01:47:22.372Z,985.06
2017-12-12T01:47:22.971Z,985.02
2017-12-12T01:47:23.570Z,985.06
2017-12-12T01:48:17.028Z,985.10
2017-12-12T01:48:17.624Z,985.08
2017-12-12T01:48:18.228Z,985.08
2017-12-12T01:48:18.827Z,985.09
2017-12-12T01:48:19.425Z,985.09
2017-12-12T01:48:20.026Z,985.09
2017-12-12T01:48:20.626Z,985.10
2017-12-12T01:48:21.224Z,985.11
2017-12-12T01:49:14.681Z,985.08
2017-12-12T01:49:15.276Z,985.09
2017-12-12T01:49:15.877Z,985.09
2017-12-12T01:49:16.477Z,985.09
2017-12-12T01:49:17.078Z,985.09
2017-12-12T01:49:17.678Z,985.08
2017-12-12T01:49:18.277Z,985.09
2017-12-12T01:49:18.936Z,985.10
2017-12-12T01:50:12.331Z,985.15
2017-12-12T01:50:12.929Z,985.16
2017-12-12T01:50:13.530Z,985.13
2017-12-12T01:50:14.131Z,985.12
2017-12-12T01:50:14.727Z,985.13
2017-12-12T01:50:15.329Z,985.12
2017-12-12T01:50:15.928Z,985.13
2017-12-12T01:50:16.527Z,985.11
2017-12-12T01:51:11.007Z,985.19
2017-12-12T01:51:11.603Z,985.18
2017-12-12T01:51:12.202Z,985.19
2017-12-12T01:51:12.804Z,985.15
2017-12-12T01:51:13.402Z,985.14
2017-12-12T01:51:14.002Z,985.20
2017-12-12T01:51:14.602Z,985.16
2017-12-12T01:51:15.209Z,985.16
2017-12-12T01:52:09.711Z,985.22
2017-12-12T01:52:10.280Z,985.20
2017-12-12T01:52:10.880Z,985.20
2017-12-12T01:52:11.480Z,985.21
2017-12-12T01:52:12.078Z,985.18
2017-12-12T01:52:12.678Z,985.14
2017-12-12T01:52:13.280Z,985.16
2017-12-12T01:52:13.887Z,985.17
2017-12-12T01:53:07.335Z,985.21
2017-12-12T01:53:07.933Z,985.19
2017-12-12T01:53:08.545Z,985.22
2017-12-12T01:53:09.131Z,985.23
2017-12-12T01:53:09.732Z,985.23
2017-12-12T01:53:10.335Z,985.19
2017-12-12T01:53:10.930Z,985.23
2017-12-12T01:53:11.531Z,985.19
2017-12-12T01:54:04.986Z,985.25
2017-12-12T01:54:05.583Z,985.25
2017-12-12T01:54:06.187Z,985.24
2017-12-12T01:54:06.785Z,985.22
2017-12-12T01:54:07.387Z,985.22
2017-12-12T01:54:07.981Z,985.19
2017-12-12T01:54:08.583Z,985.26
2017-12-12T01:54:09.182Z,985.25
2017-12-12T01:55:03.666Z,985.29
2017-12-12T01:55:04.268Z,985.23
2017-12-12T01:55:04.859Z,985.30
2017-12-12T01:55:05.459Z,985.28
2017-12-12T01:55:06.058Z,985.29
2017-12-12T01:55:06.660Z,985.25
2017-12-12T01:55:07.258Z,985.29
2017-12-12T01:55:07.857Z,985.29
2017-12-12T01:56:02.337Z,985.31
2017-12-12T01:56:02.935Z,985.31
2017-12-12T01:56:03.533Z,985.30
2017-12-12T01:56:04.135Z,985.33
2017-12-12T01:56:04.734Z,985.29
2017-12-12T01:56:05.334Z,985.29
2017-12-12T01:56:05.934Z,985.29
2017-12-12T01:56:06.533Z,985.31
2017-12-12T01:57:01.014Z,985.37
2017-12-12T01:57:01.610Z,985.33
2017-12-12T01:57:02.209Z,985.37
2017-12-12T01:57:02.809Z,985.29
2017-12-12T01:57:03.410Z,985.34
2017-12-12T01:57:04.013Z,985.33
2017-12-12T01:57:04.608Z,985.30
2017-12-12T01:57:05.209Z,985.34
2017-12-12T01:57:58.700Z,985.35
2017-12-12T01:57:59.264Z,985.33
2017-12-12T01:57:59.863Z,985.36
2017-12-12T01:58:00.463Z,985.35
2017-12-12T01:58:01.062Z,985.34
2017-12-12T01:58:01.662Z,985.33
2017-12-12T01:58:02.262Z,985.37
2017-12-12T01:58:02.861Z,985.35
2017-12-12T01:58:57.341Z,985.33
2017-12-12T01:58:57.936Z,985.39
2017-12-12T01:58:58.537Z,985.39
2017-12-12T01:58:59.136Z,985.36
2017-12-12T01:58:59.738Z,985.36
2017-12-12T01:59:00.336Z,985.38
2017-12-12T01:59:00.937Z,985.40
2017-12-12T01:59:01.536Z,985.41
2017-12-12T01:59:54.996Z,985.43
2017-12-12T01:59:55.591Z,985.41
2017-12-12T01:59:56.190Z,985.42
2017-12-12T01:59:56.790Z,985.41
2017-12-12T01:59:57.389Z,985.39
2017-12-12T01:59:57.990Z,985.38
2017-12-12T01:59:58.588Z,985.41
2017-12-12T01:59:59.188Z,985.41
2017-12-12T02:00:52.647Z,985.45
2017-12-12T02:00:53.244Z,985.43
2017-12-12T02:00:53.841Z,985.41
2017-12-12T02:00:54.447Z,985.41
2017-12-12T02:00:55.041Z,985.41
2017-12-12T02:00:55.641Z,985.43
2017-12-12T02:00:56.242Z,985.44
2017-12-12T02:00:56.840Z,985.41
2017-12-12T02:01:50.297Z,985.45
2017-12-12T02:01:50.893Z,985.42
2017-12-12T02:01:51.493Z,985.42
2017-12-12T02:01:52.093Z,985.44
2017-12-12T02:01:52.696Z,985.44
2017-12-12T02:01:53.293Z,985.47
2017-12-12T02:01:53.890Z,985.48
2017-12-12T02:01:54.499Z,985.45
2017-12-12T02:02:47.947Z,985.42
2017-12-12T02:02:48.547Z,985.43
2017-12-12T02:02:49.145Z,985.44
2017-12-12T02:02:49.745Z,985.43
2017-12-12T02:02:50.344Z,985.47
2017-12-12T02:02:50.945Z,985.46
2017-12-12T02:02:51.545Z,985.45
2017-12-12T02:02:52.143Z,985.45
2017-12-12T02:03:45.627Z,985.49
2017-12-12T02:03:46.196Z,985.48
2017-12-12T02:03:46.796Z,985.47
2017-12-12T02:03:47.398Z,985.45
2017-12-12T02:03:47.993Z,985.43
2017-12-12T02:03:48.602Z,985.47
2017-12-12T02:03:49.194Z,985.47
2017-12-12T02:03:49.793Z,985.50
2017-12-12T02:04:44.274Z,985.53
2017-12-12T02:04:44.871Z,985.55
2017-12-12T02:04:45.470Z,985.53
2017-12-12T02:04:46.071Z,985.57
2017-12-12T02:04:46.670Z,985.54
2017-12-12T02:04:47.277Z,985.53
2017-12-12T02:04:47.869Z,985.51
2017-12-12T02:04:48.469Z,985.55
2017-12-12T02:05:42.953Z,985.59
2017-12-12T02:05:43.547Z,985.60
2017-12-12T02:05:44.147Z,985.62
2017-12-12T02:05:44.747Z,985.57
2017-12-12T02:05:45.345Z,985.60
2017-12-12T02:05:45.945Z,985.59
2017-12-12T02:05:46.546Z,985.59
2017-12-12T02:05:47.145Z,985.58
2017-12-12T02:06:41.625Z,985.61
2017-12-12T02:06:42.224Z,985.60
2017-12-12T02:06:42.821Z,985.61
2017-12-12T02:06:43.422Z,985.60
2017-12-12T02:06:44.023Z,985.60
2017-12-12T02:06:44.625Z,985.59
2017-12-12T02:06:45.221Z,985.61
2017-12-12T02:06:45.821Z,985.62
2017-12-12T02:07:39.280Z,985.64
2017-12-12T02:07:39.874Z,985.66
2017-12-12T02:07:40.480Z,985.64
2017-12-12T02:07:41.077Z,985.64
2017-12-12T02:07:41.675Z,985.63
2017-12-12T02:07:42.274Z,985.64
2017-12-12T02:07:42.874Z,985.67
2017-12-12T02:07:43.473Z,985.63
2017-12-12T02:08:37.992Z,985.67
2017-12-12T02:08:38.550Z,985.67
2017-12-12T02:08:39.150Z,985.65
2017-12-12T02:08:39.749Z,985.66
2017-12-12T02:08:40.348Z,985.65
2017-12-12T02:08:40.952Z,985.66
2017-12-12T02:08:41.551Z,985.68
2017-12-12T02:08:42.147Z,985.67
2017-12-12T02:09:35.606Z,985.64
2017-12-12T02:09:36.202Z,985.69
2017-12-12T02:09:36.802Z,985.65
2017-12-12T02:09:37.400Z,985.66
2017-12-12T02:09:38.005Z,985.67
2017-12-12T02:09:38.602Z,985.69
2017-12-12T02:09:39.200Z,985.68
2017-12-12T02:09:39.803Z,985.65
2017-12-12T02:10:33.259Z,985.65
2017-12-12T02:10:33.855Z,985.69
2017-12-12T02:10:34.454Z,985.66
2017-12-12T02:10:35.054Z,985.66
2017-12-12T02:10:35.659Z,985.68
2017-12-12T02:10:36.253Z,985.67
2017-12-12T02:10:36.854Z,985.69
2017-12-12T02:10:37.454Z,985.69
2017-12-12T02:11:30.909Z,985.71
2017-12-12T02:11:31.505Z,985.68
2017-12-12T02:11:32.109Z,985.69
2017-12-12T02:11:32.705Z,985.72
2017-12-12T02:11:33.312Z,985.69
2017-12-12T02:11:33.905Z,985.70
2017-12-12T02:11:34.504Z,985.69
2017-12-12T02:11:35.104Z,985.68
2017-12-12T02:12:29.584Z,985.72
2017-12-12T02:12:30.182Z,985.73
2017-12-12T02:12:30.784Z,985.73
2017-12-12T02:12:31.381Z,985.71
2017-12-12T02:12:31.980Z,985.68
2017-12-12T02:12:32.580Z,985.73
2017-12-12T02:12:33.178Z,985.70
2017-12-12T02:12:33.779Z,985.71
2017-12-12T02:13:28.260Z,985.72
2017-12-12T02:13:28.856Z,985.74
2017-12-12T02:13:29.457Z,985.73
2017-12-12T02:13:30.057Z,985.71
2017-12-12T02:13:30.655Z,985.70
2017-12-12T02:13:31.257Z,985.70
2017-12-12T02:13:31.856Z,985.68
2017-12-12T02:13:32.456Z,985.66
2017-12-12T02:14:26.963Z,985.75
2017-12-12T02:14:27.533Z,985.72
2017-12-12T02:14:28.132Z,985.69
2017-12-12T02:14:28.732Z,985.71
2017-12-12T02:14:29.333Z,985.67
2017-12-12T02:14:29.930Z,985.71
2017-12-12T02:14:30.532Z,985.73
2017-12-12T02:14:31.129Z,985.73
2017-12-12T02:15:24.586Z,985.72
2017-12-12T02:15:25.185Z,985.73
2017-12-12T02:15:25.785Z,985.78
2017-12-12T02:15:26.384Z,985.77
2017-12-12T02:15:26.983Z,985.78
2017-12-12T02:15:27.584Z,985.78
2017-12-12T02:15:28.184Z,985.78
2017-12-12T02:15:28.791Z,985.74
2017-12-12T02:16:23.264Z,985.79
2017-12-12T02:16:23.860Z,985.80
2017-12-12T02:16:24.458Z,985.76
2017-12-12T02:16:25.061Z,985.80
2017-12-12T02:16:25.658Z,985.78
2017-12-12T02:16:26.259Z,985.78
2017-12-12T02:16:26.858Z,985.79
2017-12-12T02:16:27.457Z,985.78
2017-12-12T02:17:21.939Z,985.81
2017-12-12T02:17:22.534Z,985.79
2017-12-12T02:17:23.135Z,985.80
2017-12-12T02:17:23.735Z,985.80
2017-12-12T02:17:24.334Z,985.81
2017-12-12T02:17:24.936Z,985.77
2017-12-12T02:17:25.535Z,985.79
2017-12-12T02:17:26.141Z,985.79
2017-12-12T02:18:20.613Z,985.83
2017-12-12T02:18:21.211Z,985.84
2017-12-12T02:18:21.809Z,985.79
2017-12-12T02:18:22.409Z,985.77
2017-12-12T02:18:23.008Z,985.80
2017-12-12T02:18:23.612Z,985.78
2017-12-12T02:18:24.209Z,985.79
2017-12-12T02:18:24.810Z,985.77
2017-12-12T02:19:18.300Z,985.82
2017-12-12T02:19:18.866Z,985.78
2017-12-12T02:19:19.463Z,985.76
2017-12-12T02:19:20.062Z,985.74
2017-12-12T02:19:20.663Z,985.80
2017-12-12T02:19:21.262Z,985.77
2017-12-12T02:19:21.863Z,985.81
2017-12-12T02:19:22.470Z,985.81
2017-12-12T02:20:15.917Z,985.81
2017-12-12T02:20:16.515Z,985.78
2017-12-12T02:20:17.114Z,985.76
2017-12-12T02:20:17.714Z,985.80
2017-12-12T02:20:18.316Z,985.81
2017-12-12T02:20:18.914Z,985.79
2017-12-12T02:20:19.514Z,985.81
2017-12-12T02:20:20.114Z,985.77
2017-12-12T02:21:14.596Z,985.83
2017-12-12T02:21:15.190Z,985.84
2017-12-12T02:21:15.789Z,985.85
2017-12-12T02:21:16.388Z,985.82
2017-12-12T02:21:16.989Z,985.83
2017-12-12T02:21:17.588Z,985.83
2017-12-12T02:21:18.188Z,985.84
2017-12-12T02:21:18.787Z,985.85
2017-12-12T02:22:12.246Z,985.89
2017-12-12T02:22:12.842Z,985.93
2017-12-12T02:22:13.442Z,985.89
2017-12-12T02:22:14.041Z,985.90
2017-12-12T02:22:14.641Z,985.86
2017-12-12T02:22:15.241Z,985.87
2017-12-12T02:22:15.841Z,985.89
2017-12-12T02:22:16.440Z,985.88
2017-12-12T02:23:10.920Z,985.92
2017-12-12T02:23:11.517Z,985.93
2017-12-12T02:23:12.116Z,985.90
2017-12-12T02:23:12.716Z,985.92
2017-12-12T02:23:13.317Z,985.86
2017-12-12T02:23:13.917Z,985.93
2017-12-12T02:23:14.524Z,985.94
2017-12-12T02:23:15.115Z,985.92
2017-12-12T02:24:08.572Z,985.93
2017-12-12T02:24:09.177Z,985.92
2017-12-12T02:24:09.769Z,985.93
2017-12-12T02:24:10.368Z,985.96
2017-12-12T02:24:10.968Z,985.96
2017-12-12T02:24:11.569Z,985.95
2017-12-12T02:24:12.167Z,985.96
2017-12-12T02:24:12.768Z,985.93
2017-12-12T02:25:07.283Z,985.96
2017-12-12T02:25:07.845Z,985.95
2017-12-12T02:25:08.444Z,985.94
2017-12-12T02:25:09.044Z,985.95
2017-12-12T02:25:09.644Z,985.93
2017-12-12T02:25:10.244Z,985.92
2017-12-12T02:25:10.843Z,985.92
2017-12-12T02:25:11.447Z,985.95
2017-12-12T02:26:05.924Z,986.01
2017-12-12T02:26:06.520Z,985.99
2017-12-12T02:26:07.121Z,985.99
2017-12-12T02:26:07.717Z,986.02
2017-12-12T02:26:08.317Z,986.02
2017-12-12T02:26:08.917Z,986.02
2017-12-12T02:26:09.517Z,986.02
2017-12-12T02:26:10.119Z,986.00
2017-12-12T02:27:15.147Z,986.03
2017-12-12T02:27:15.744Z,986.00
2017-12-12T02:27:16.343Z,986.02
2017-12-12T02:27:16.947Z,986.01
2017-12-12T02:27:17.542Z,986.01
2017-12-12T02:27:18.143Z,985.98
2017-12-12T02:28:12.183Z,986.07
2017-12-12T02:28:12.782Z,986.01
2017-12-12T02:28:13.381Z,986.02
2017-12-12T02:28:13.995Z,986.03
2017-12-12T02:28:14.580Z,986.04
2017-12-12T02:28:15.180Z,986.05
2017-12-12T02:28:15.782Z,986.05
2017-12-12T02:28:16.381Z,986.05
2017-12-12T02:29:10.860Z,986.11
2017-12-12T02:29:11.455Z,986.11
2017-12-12T02:29:12.056Z,986.12
2017-12-12T02:29:12.656Z,986.08
2017-12-12T02:29:13.258Z,986.11
2017-12-12T02:29:13.857Z,986.10
2017-12-12T02:29:14.454Z,986.10
2017-12-12T02:29:15.055Z,986.08
2017-12-12T02:30:09.569Z,986.10
2017-12-12T02:30:10.131Z,986.09
2017-12-12T02:30:10.732Z,986.13
2017-12-12T02:30:11.332Z,986.06
2017-12-12T02:30:11.934Z,986.13
2017-12-12T02:30:12.537Z,986.10
2017-12-12T02:30:13.129Z,986.07
2017-12-12T02:30:13.751Z,986.13
2017-12-12T02:31:07.188Z,986.16
2017-12-12T02:31:07.784Z,986.16
2017-12-12T02:31:08.387Z,986.11
2017-12-12T02:31:08.982Z,986.12
2017-12-12T02:31:09.581Z,986.11
2017-12-12T02:31:10.182Z,986.11
2017-12-12T02:31:10.781Z,986.12
2017-12-12T02:31:11.379Z,986.13
2017-12-12T02:32:04.837Z,986.16
2017-12-12T02:32:05.434Z,986.13
2017-12-12T02:32:06.041Z,986.11
2017-12-12T02:32:06.636Z,986.11
2017-12-12T02:32:07.287Z,986.11
2017-12-12T02:32:07.836Z,986.11
2017-12-12T02:32:08.433Z,986.09
2017-12-12T02:32:09.034Z,986.13
2017-12-12T02:33:02.495Z,986.16
2017-12-12T02:33:03.087Z,986.09
2017-12-12T02:33:03.687Z,986.08
2017-12-12T02:33:04.286Z,986.14
2017-12-12T02:33:04.887Z,986.14
2017-12-12T02:33:05.486Z,986.15
2017-12-12T02:33:06.086Z,986.16
2017-12-12T02:33:06.687Z,986.11
2017-12-12T02:34:00.142Z,986.10
2017-12-12T02:34:00.742Z,986.10
2017-12-12T02:34:01.339Z,986.06
2017-12-12T02:34:01.938Z,986.09
2017-12-12T02:34:02.538Z,986.10
2017-12-12T02:52:24.866Z,986.46
2017-12-12T02:52:25.433Z,986.40
2017-12-12T02:52:26.031Z,986.45
2017-12-12T02:52:26.635Z,986.45
2017-12-12T02:52:27.232Z,986.49
2017-12-12T02:52:27.873Z,986.46
2017-12-12T02:52:28.432Z,986.47
2017-12-12T02:52:29.035Z,986.47
2017-12-12T02:53:22.532Z,986.44
2017-12-12T02:53:23.084Z,986.45
2017-12-12T02:53:23.685Z,986.39
2017-12-12T02:53:24.286Z,986.44
2017-12-12T02:53:24.884Z,986.46
2017-12-12T02:53:25.483Z,986.48
2017-12-12T02:53:26.084Z,986.43
2017-12-12T02:53:26.684Z,986.42
2017-12-12T02:54:21.164Z,986.48
2017-12-12T02:54:21.760Z,986.45
2017-12-12T02:54:22.361Z,986.49
2017-12-12T02:54:22.963Z,986.49
2017-12-12T02:54:23.561Z,986.48
2017-12-12T02:54:24.161Z,986.48
2017-12-12T02:54:24.760Z,986.45
2017-12-12T02:54:25.361Z,986.48
2017-12-12T02:55:18.820Z,986.49
2017-12-12T02:55:19.412Z,986.48
2017-12-12T02:55:20.013Z,986.47
2017-12-12T02:55:20.616Z,986.46
2017-12-12T02:55:21.212Z,986.43
2017-12-12T02:55:21.810Z,986.41
2017-12-12T02:55:22.410Z,986.44
2017-12-12T02:55:23.011Z,986.46
2017-12-12T02:56:17.493Z,986.44
2017-12-12T02:56:18.090Z,986.47
2017-12-12T02:56:18.688Z,986.47
2017-12-12T02:56:19.290Z,986.46
2017-12-12T02:56:19.888Z,986.48
2017-12-12T02:56:20.488Z,986.46
2017-12-12T02:56:21.087Z,986.48
2017-12-12T02:56:21.687Z,986.47
2017-12-12T02:57:15.146Z,986.47
2017-12-12T02:57:15.741Z,986.45
2017-12-12T02:57:16.343Z,986.46
2017-12-12T02:57:16.941Z,986.49
2017-12-12T02:57:17.540Z,986.49
2017-12-12T02:57:18.141Z,986.47
2017-12-12T02:57:18.740Z,986.46
2017-12-12T02:57:19.343Z,986.48
2017-12-12T02:58:13.820Z,986.51
2017-12-12T02:58:14.417Z,986.53
2017-12-12T02:58:15.018Z,986.50
2017-12-12T02:58:15.616Z,986.54
2017-12-12T02:58:16.216Z,986.54
2017-12-12T02:58:16.817Z,986.52
2017-12-12T02:58:17.417Z,986.52
2017-12-12T02:58:18.015Z,986.51
2017-12-12T02:59:12.522Z,986.54
2017-12-12T02:59:13.092Z,986.55
2017-12-12T02:59:13.692Z,986.54
2017-12-12T02:59:14.294Z,986.51
2017-12-12T02:59:14.893Z,986.53
2017-12-12T02:59:15.491Z,986.52
2017-12-12T02:59:16.091Z,986.48
2017-12-12T02:59:16.692Z,986.51
2017-12-12T03:00:11.173Z,986.53
2017-12-12T03:00:11.768Z,986.51
2017-12-12T03:00:12.369Z,986.50
2017-12-12T03:00:12.969Z,986.50
2017-12-12T03:00:13.569Z,986.52
2017-12-12T03:00:14.168Z,986.49
2017-12-12T03:00:14.769Z,986.48
2017-12-12T03:00:15.367Z,986.51
2017-12-12T03:01:08.825Z,986.56
2017-12-12T03:01:09.422Z,986.57
2017-12-12T03:01:10.020Z,986.59
2017-12-12T03:01:10.622Z,986.56
2017-12-12T03:01:11.221Z,986.52
2017-12-12T03:01:11.820Z,986.57
2017-12-12T03:01:12.421Z,986.55
2017-12-12T03:01:13.020Z,986.57
2017-12-12T03:02:07.499Z,986.59
2017-12-12T03:02:08.097Z,986.58
2017-12-12T03:02:08.696Z,986.60
2017-12-12T03:02:09.297Z,986.60
2017-12-12T03:02:09.894Z,986.55
2017-12-12T03:02:10.495Z,986.60
2017-12-12T03:02:11.096Z,986.60
2017-12-12T03:02:11.697Z,986.60
2017-12-12T03:03:06.178Z,986.60
2017-12-12T03:03:06.773Z,986.58
2017-12-12T03:03:07.373Z,986.61
2017-12-12T03:03:07.971Z,986.60
2017-12-12T03:03:08.571Z,986.59
2017-12-12T03:03:09.171Z,986.59
2017-12-12T03:03:09.771Z,986.60
2017-12-12T03:03:10.373Z,986.61
2017-12-12T03:04:03.862Z,986.65
2017-12-12T03:04:04.425Z,986.59
2017-12-12T03:04:05.024Z,986.63
2017-12-12T03:04:05.625Z,986.65
2017-12-12T03:04:06.225Z,986.64
2017-12-12T03:04:06.826Z,986.68
2017-12-12T03:04:07.423Z,986.67
2017-12-12T03:04:08.023Z,986.65
2017-12-12T03:05:02.505Z,986.70
2017-12-12T03:05:03.100Z,986.70
2017-12-12T03:05:03.707Z,986.70
2017-12-12T03:05:04.299Z,986.70
2017-12-12T03:05:04.898Z,986.69
2017-12-12T03:05:05.501Z,986.71
2017-12-12T03:05:06.099Z,986.68
2017-12-12T03:05:06.697Z,986.71
2017-12-12T03:06:01.179Z,986.76
2017-12-12T03:06:01.775Z,986.74
2017-12-12T03:06:02.374Z,986.75
2017-12-12T03:06:02.974Z,986.75
2017-12-12T03:06:03.576Z,986.72
2017-12-12T03:06:04.173Z,986.75
2017-12-12T03:06:04.774Z,986.72
2017-12-12T03:06:05.422Z,986.75
2017-12-12T03:06:59.853Z,986.80
2017-12-12T03:07:00.451Z,986.74
2017-12-12T03:07:01.054Z,986.79
2017-12-12T03:07:01.650Z,986.76
2017-12-12T03:07:02.250Z,986.76
2017-12-12T03:07:02.853Z,986.78
2017-12-12T03:07:03.450Z,986.77
2017-12-12T03:07:04.049Z,986.81
2017-12-12T03:07:59.041Z,986.78
2017-12-12T03:07:59.636Z,986.78
2017-12-12T03:08:00.236Z,986.77
2017-12-12T03:08:00.836Z,986.79
2017-12-12T03:08:01.437Z,986.81
2017-12-12T03:08:02.035Z,986.82
2017-12-12T03:08:56.998Z,986.85
2017-12-12T03:08:57.594Z,986.84
2017-12-12T03:08:58.195Z,986.83
2017-12-12T03:08:58.820Z,986.81
2017-12-12T03:08:59.392Z,986.81
2017-12-12T03:08:59.992Z,986.82
2017-12-12T03:09:00.593Z,986.84
2017-12-12T03:09:01.193Z,986.86
2017-12-12T03:09:55.709Z,986.82
2017-12-12T03:09:56.271Z,986.85
2017-12-12T03:09:56.871Z,986.86
2017-12-12T03:09:57.476Z,986.81
2017-12-12T03:09:58.072Z,986.82
2017-12-12T03:09:58.673Z,986.88
2017-12-12T03:09:59.271Z,986.85
2017-12-12T03:09:59.871Z,986.83
2017-12-12T03:10:54.350Z,986.89
2017-12-12T03:10:54.946Z,986.90
2017-12-12T03:10:55.548Z,986.92
2017-12-12T03:10:56.147Z,986.91
2017-12-12T03:10:56.747Z,986.91
2017-12-12T03:10:57.347Z,986.95
2017-12-12T03:10:57.946Z,986.93
2017-12-12T03:10:58.546Z,986.93
2017-12-12T03:11:53.028Z,986.91
2017-12-12T03:11:53.624Z,986.92
2017-12-12T03:11:54.222Z,986.94
2017-12-12T03:11:54.821Z,986.93
2017-12-12T03:11:55.423Z,986.92
2017-12-12T03:11:56.030Z,986.93
2017-12-12T03:11:56.622Z,986.91
2017-12-12T03:11:57.221Z,986.85
2017-12-12T03:12:51.702Z,986.98
2017-12-12T03:12:52.298Z,986.93
2017-12-12T03:12:52.898Z,986.92
2017-12-12T03:12:53.498Z,986.95
2017-12-12T03:12:54.099Z,986.98
2017-12-12T03:12:54.700Z,986.95
2017-12-12T03:12:55.296Z,986.94
2017-12-12T03:12:55.897Z,986.95
2017-12-12T03:13:49.357Z,986.94
2017-12-12T03:13:49.951Z,986.93
2017-12-12T03:13:50.549Z,986.94
2017-12-12T03:13:51.150Z,986.94
2017-12-12T03:13:51.751Z,986.93
2017-12-12T03:13:52.352Z,986.96
2017-12-12T03:13:52.950Z,986.95
2017-12-12T03:13:53.553Z,986.93
2017-12-12T03:14:48.029Z,986.97
2017-12-12T03:14:48.625Z,986.95
2017-12-12T03:14:49.224Z,986.97
2017-12-12T03:14:49.825Z,986.95
2017-12-12T03:14:50.425Z,986.94
2017-12-12T03:14:51.025Z,986.93
2017-12-12T03:14:51.625Z,986.98
2017-12-12T03:14:52.224Z,986.96
2017-12-12T03:15:45.706Z,986.98
2017-12-12T03:15:46.278Z,986.98
2017-12-12T03:15:46.879Z,986.94
2017-12-12T03:15:47.478Z,986.94
2017-12-12T03:15:48.077Z,986.97
2017-12-12T03:15:48.677Z,986.98
2017-12-12T03:15:49.278Z,986.95
2017-12-12T03:15:49.877Z,986.91
2017-12-12T03:16:43.332Z,987.01
2017-12-12T03:16:43.932Z,986.95
2017-12-12T03:16:44.530Z,986.98
2017-12-12T03:16:45.130Z,987.00
2017-12-12T03:16:45.730Z,986.97
2017-12-12T03:16:46.328Z,987.00
2017-12-12T03:16:46.929Z,986.98
2017-12-12T03:16:47.528Z,986.96
2017-12-12T03:17:42.008Z,986.99
2017-12-12T03:17:42.604Z,987.00
2017-12-12T03:17:43.203Z,987.00
2017-12-12T03:17:43.804Z,987.01
2017-12-12T03:17:44.403Z,987.00
2017-12-12T03:17:45.010Z,986.98
2017-12-12T03:17:45.602Z,987.00
2017-12-12T03:17:46.204Z,986.99
2017-12-12T03:18:41.195Z,987.05
2017-12-12T03:18:41.791Z,987.00
2017-12-12T03:18:42.392Z,987.05
2017-12-12T03:18:42.991Z,987.08
2017-12-12T03:18:43.591Z,987.05
2017-12-12T03:18:44.191Z,987.08
2017-12-12T03:18:44.791Z,987.07
2017-12-12T03:19:38.233Z,987.06
2017-12-12T03:19:38.833Z,987.04
2017-12-12T03:19:39.429Z,987.03
2017-12-12T03:19:40.030Z,987.06
2017-12-12T03:19:40.629Z,987.05
2017-12-12T03:19:41.236Z,987.06
2017-12-12T03:19:41.829Z,987.10
2017-12-12T03:19:42.428Z,987.03
2017-12-12T03:20:35.918Z,987.08
2017-12-12T03:20:36.482Z,987.04
2017-12-12T03:20:37.085Z,987.03
2017-12-12T03:20:37.682Z,987.06
2017-12-12T03:20:38.282Z,987.03
2017-12-12T03:20:38.899Z,987.08
2017-12-12T03:20:39.481Z,987.10
2017-12-12T03:20:40.081Z,987.06
2017-12-12T03:21:34.560Z,987.10
2017-12-12T03:21:35.155Z,987.09
2017-12-12T03:21:35.765Z,987.11
2017-12-12T03:21:36.356Z,987.09
2017-12-12T03:21:36.955Z,987.09
2017-12-12T03:21:37.555Z,987.06
2017-12-12T03:21:38.155Z,987.06
2017-12-12T03:21:38.755Z,987.08
2017-12-12T03:22:32.212Z,987.19
2017-12-12T03:22:32.812Z,987.24
2017-12-12T03:22:33.410Z,987.18
2017-12-12T03:22:34.009Z,987.21
2017-12-12T03:22:34.609Z,987.18
2017-12-12T03:22:35.209Z,987.19
2017-12-12T03:22:35.812Z,987.19
2017-12-12T03:22:36.407Z,987.17
2017-12-12T03:23:30.888Z,987.16
2017-12-12T03:23:31.484Z,987.17
2017-12-12T03:23:32.084Z,987.18
2017-12-12T03:23:32.686Z,987.19
2017-12-12T03:23:33.286Z,987.19
2017-12-12T03:23:33.890Z,987.12
2017-12-12T03:23:34.484Z,987.17
2017-12-12T03:23:35.088Z,987.18
2017-12-12T03:24:28.544Z,987.24
2017-12-12T03:24:29.138Z,987.18
2017-12-12T03:24:29.737Z,987.23
2017-12-12T03:24:30.337Z,987.25
2017-12-12T03:24:30.944Z,987.25
2017-12-12T03:24:31.539Z,987.24
2017-12-12T03:24:32.136Z,987.21
2017-12-12T03:24:32.738Z,987.26
2017-12-12T03:25:27.215Z,987.25
2017-12-12T03:25:27.811Z,987.23
2017-12-12T03:25:28.411Z,987.28
2017-12-12T03:25:29.013Z,987.26
2017-12-12T03:25:29.612Z,987.23
2017-12-12T03:25:30.211Z,987.24
2017-12-12T03:25:30.810Z,987.24
2017-12-12T03:25:31.410Z,987.25
2017-12-12T03:26:38.102Z,987.29
2017-12-12T03:26:38.676Z,987.30
2017-12-12T03:26:39.274Z,987.30
2017-12-12T03:26:39.874Z,987.32
2017-12-12T03:26:40.473Z,987.30
2017-12-12T03:26:41.074Z,987.30
2017-12-12T03:26:41.673Z,987.31
2017-12-12T03:27:36.138Z,987.31
2017-12-12T03:27:36.734Z,987.31
2017-12-12T03:27:37.334Z,987.34
2017-12-12T03:27:37.934Z,987.31
2017-12-12T03:27:38.534Z,987.36
2017-12-12T03:27:39.134Z,987.30